createdAt,value
2019-05-11T05:01:52.923Z,94.40
2019-05-11T05:04:22.905Z,94.40
2019-05-11T05:06:59.978Z,94.60
2019-05-11T05:09:25.527Z,94.60
2019-05-11T05:11:55.593Z,94.70
2019-05-11T05:14:25.573Z,94.60
2019-05-11T05:16:55.595Z,94.90
2019-05-11T05:19:25.579Z,94.90
2019-05-11T05:21:55.522Z,94.90
2019-05-11T05:24:25.501Z,94.60
2019-05-11T05:26:55.454Z,94.70
2019-05-11T05:29:25.450Z,94.70
2019-05-11T05:31:55.420Z,94.40
2019-05-11T05:34:25.403Z,94.40
2019-05-11T05:36:55.376Z,94.10
2019-05-11T05:39:25.329Z,93.70
2019-05-11T05:41:57.388Z,93.60
2019-05-11T05:44:28.462Z,93.60
2019-05-11T05:46:59.381Z,93.40
2019-05-11T05:49:29.362Z,93.40
2019-05-11T05:51:59.320Z,93.00
2019-05-11T05:54:29.322Z,92.90
2019-05-11T05:56:59.262Z,92.40
2019-05-11T05:59:29.247Z,92.50
2019-05-11T06:01:59.235Z,92.70
2019-05-11T06:04:29.181Z,92.40
2019-05-11T06:06:59.180Z,92.00
2019-05-11T06:09:29.136Z,91.60
2019-05-11T06:11:59.137Z,91.30
2019-05-11T06:14:29.092Z,90.80
2019-05-11T06:16:59.071Z,90.40
2019-05-11T06:19:29.121Z,90.20
2019-05-11T06:21:59.112Z,89.30
2019-05-11T06:24:29.104Z,88.60
2019-05-11T06:27:00.079Z,88.00
2019-05-11T06:29:30.084Z,87.60
2019-05-11T06:32:00.044Z,87.10
2019-05-11T06:34:30.047Z,87.10
2019-05-11T06:37:00.010Z,86.60
2019-05-11T06:39:30.111Z,86.00
2019-05-11T06:42:00.088Z,85.70
2019-05-11T06:44:30.040Z,85.80
2019-05-11T06:47:00.022Z,85.60
2019-05-11T06:49:29.974Z,85.30
2019-05-11T06:51:59.956Z,84.20
2019-05-11T06:54:29.924Z,84.00
2019-05-11T06:56:59.987Z,84.00
2019-05-11T06:59:29.973Z,84.50
2019-05-11T07:01:59.942Z,83.30
2019-05-11T07:04:29.905Z,82.80
2019-05-11T07:06:59.923Z,83.10
2019-05-11T07:09:29.992Z,82.60
2019-05-11T07:12:00.066Z,80.00
2019-05-11T07:14:30.075Z,78.20
2019-05-11T07:17:00.066Z,78.10
2019-05-11T07:19:30.036Z,76.50
2019-05-11T07:22:00.073Z,76.00
2019-05-11T07:24:29.980Z,76.90
2019-05-11T07:26:59.941Z,74.90
2019-05-11T07:29:29.945Z,73.00
2019-05-11T07:32:06.240Z,71.90
2019-05-11T07:34:31.598Z,69.70
2019-05-11T07:37:01.763Z,68.70
2019-05-11T07:39:31.725Z,70.40
2019-05-11T07:42:01.725Z,67.00
2019-05-11T07:44:37.939Z,67.00
2019-05-11T07:47:03.331Z,67.80
2019-05-11T07:49:33.372Z,66.50
2019-05-11T07:52:03.370Z,63.50
2019-05-11T07:54:33.365Z,63.70
2019-05-11T07:57:03.326Z,64.80
2019-05-11T07:59:33.310Z,62.20
2019-05-11T08:02:03.261Z,61.00
2019-05-11T08:04:33.264Z,60.60
2019-05-11T08:07:03.263Z,59.30
2019-05-11T08:09:33.234Z,59.60
2019-05-11T08:12:03.217Z,58.20
2019-05-11T08:14:33.181Z,56.50
2019-05-11T08:17:03.180Z,57.10
2019-05-11T08:19:33.151Z,57.60
2019-05-11T08:22:03.192Z,56.90
2019-05-11T08:24:33.342Z,55.10
2019-05-11T08:27:03.285Z,56.20
2019-05-11T08:29:33.275Z,55.80
2019-05-11T08:32:03.291Z,52.40
2019-05-11T08:34:33.303Z,53.80
2019-05-11T08:37:03.328Z,53.70
2019-05-11T08:39:33.743Z,54.00
2019-05-11T08:42:04.066Z,52.20
2019-05-11T08:44:34.108Z,51.30
2019-05-11T08:47:04.407Z,53.20
2019-05-11T08:49:34.833Z,52.60
2019-05-11T08:52:05.010Z,53.00
2019-05-11T08:54:35.072Z,50.00
2019-05-11T08:57:05.026Z,49.90
2019-05-11T08:59:35.093Z,49.70
2019-05-11T09:02:05.190Z,51.10
2019-05-11T09:04:39.208Z,49.10
2019-05-11T09:07:07.905Z,48.30
2019-05-11T09:09:38.219Z,47.60
2019-05-11T09:12:08.204Z,47.50
2019-05-11T09:14:38.767Z,46.30
2019-05-11T09:17:09.933Z,46.50
2019-05-11T09:19:39.906Z,43.50
2019-05-11T09:22:10.163Z,44.50
2019-05-11T09:24:40.280Z,44.30
2019-05-11T09:27:10.500Z,45.60
2019-05-11T09:29:40.928Z,45.00
2019-05-11T09:32:11.147Z,44.50
2019-05-11T09:34:41.413Z,45.30
2019-05-11T09:37:11.590Z,44.70
2019-05-11T09:39:41.708Z,43.60
2019-05-11T09:42:11.826Z,43.00
2019-05-11T09:44:42.353Z,43.50
2019-05-11T09:47:12.477Z,44.50
2019-05-11T09:49:47.625Z,45.90
2019-05-11T09:52:14.347Z,45.70
2019-05-11T09:54:44.979Z,46.20
2019-05-11T09:57:15.662Z,46.60
2019-05-11T09:59:47.831Z,47.00
2019-05-11T10:02:20.812Z,49.40
2019-05-11T10:04:49.485Z,47.10
2019-05-11T10:07:19.525Z,45.00
2019-05-11T10:09:49.596Z,44.60
2019-05-11T10:12:19.627Z,43.50
2019-05-11T10:14:49.678Z,42.60
2019-05-11T10:17:19.643Z,41.00
2019-05-11T10:19:49.967Z,40.00
2019-05-11T10:22:19.932Z,40.60
2019-05-11T10:24:49.955Z,39.00
2019-05-11T10:27:20.000Z,38.10
2019-05-11T10:29:50.326Z,37.20
2019-05-11T10:32:20.952Z,38.00
2019-05-11T10:34:50.998Z,37.80
2019-05-11T10:37:21.497Z,38.90
2019-05-11T10:39:51.693Z,40.20
2019-05-11T10:42:22.350Z,41.60
2019-05-11T10:44:52.424Z,41.60
2019-05-11T10:47:22.690Z,42.50
2019-05-11T10:49:52.909Z,44.80
2019-05-11T10:52:22.851Z,43.00
2019-05-11T10:54:52.843Z,43.10
2019-05-11T10:57:22.847Z,44.80
2019-05-11T10:59:53.153Z,44.60
2019-05-11T11:02:23.161Z,44.70
2019-05-11T11:04:53.148Z,44.60
2019-05-11T11:07:24.184Z,44.70
2019-05-11T11:09:54.162Z,44.00
2019-05-11T11:12:24.239Z,44.00
2019-05-11T11:14:54.222Z,43.00
2019-05-11T11:17:24.189Z,43.30
2019-05-11T11:19:54.172Z,42.50
2019-05-11T11:22:39.014Z,42.80
2019-05-11T11:24:58.740Z,42.50
2019-05-11T11:27:29.172Z,42.80
2019-05-11T11:29:59.823Z,42.80
2019-05-11T11:32:29.838Z,43.30
2019-05-11T11:35:00.050Z,45.10
2019-05-11T11:37:30.280Z,44.30
2019-05-11T11:40:00.288Z,45.00
2019-05-11T11:42:30.237Z,46.70
2019-05-11T11:45:00.797Z,47.30
2019-05-11T11:47:30.975Z,46.00
2019-05-11T11:50:00.951Z,46.90
2019-05-11T11:52:31.064Z,46.70
2019-05-11T11:55:01.115Z,46.40
2019-05-11T11:57:31.432Z,47.00
2019-05-11T12:00:01.421Z,47.30
2019-05-11T12:02:31.568Z,46.40
2019-05-11T12:05:02.842Z,46.60
2019-05-11T12:07:33.035Z,45.70
2019-05-11T12:10:03.451Z,46.50
2019-05-11T12:12:33.680Z,46.60
2019-05-11T12:15:04.623Z,47.40
2019-05-11T12:17:35.046Z,47.00
2019-05-11T12:20:09.039Z,46.90
2019-05-11T12:22:39.684Z,47.60
2019-05-11T12:25:09.889Z,47.50
2019-05-11T12:27:40.023Z,47.80
2019-05-11T12:30:11.131Z,47.80
2019-05-11T12:32:43.228Z,47.20
2019-05-11T12:35:13.490Z,47.10
2019-05-11T12:37:43.903Z,47.00
2019-05-11T12:40:14.172Z,47.20
2019-05-11T12:42:44.625Z,47.30
2019-05-11T12:45:15.128Z,46.90
2019-05-11T12:47:47.770Z,47.00
2019-05-11T12:50:18.708Z,48.00
2019-05-11T12:52:48.759Z,46.50
2019-05-11T12:55:19.094Z,45.40
2019-05-11T12:57:49.535Z,46.70
2019-05-11T13:00:20.280Z,46.20
2019-05-11T13:02:50.693Z,46.90
2019-05-11T13:05:21.612Z,45.40
2019-05-11T13:07:52.673Z,45.20
2019-05-11T13:10:23.198Z,46.60
2019-05-11T13:12:54.853Z,46.80
2019-05-11T13:15:25.511Z,47.40
2019-05-11T13:17:57.960Z,46.80
2019-05-11T13:20:28.826Z,47.30
2019-05-11T13:22:58.975Z,48.00
2019-05-11T13:25:29.033Z,47.80
2019-05-11T13:27:59.454Z,47.60
2019-05-11T13:30:29.675Z,48.10
2019-05-11T13:32:59.704Z,48.60
2019-05-11T13:35:29.659Z,49.30
2019-05-11T13:37:59.710Z,49.10
2019-05-11T13:40:29.902Z,49.90
2019-05-11T13:43:00.712Z,49.90
2019-05-11T13:45:30.719Z,50.30
2019-05-11T13:48:00.986Z,50.70
2019-05-11T13:50:31.347Z,50.50
2019-05-11T13:53:01.291Z,50.30
2019-05-11T13:55:31.324Z,50.30
2019-05-11T13:58:01.422Z,51.00
2019-05-11T14:00:31.504Z,50.90
2019-05-11T14:03:03.407Z,50.90
2019-05-11T14:05:33.998Z,51.30
2019-05-11T14:08:04.292Z,52.00
2019-05-11T14:10:34.264Z,51.70
2019-05-11T14:13:04.673Z,51.80
2019-05-11T14:15:34.880Z,51.80
2019-05-11T14:18:08.688Z,52.10
2019-05-11T14:20:37.830Z,51.00
2019-05-11T14:23:08.205Z,51.60
2019-05-11T14:25:38.208Z,51.40
2019-05-11T14:28:09.090Z,52.30
2019-05-11T14:30:39.141Z,52.20
2019-05-11T14:33:09.184Z,52.50
2019-05-11T14:35:39.208Z,53.10
2019-05-11T14:38:09.225Z,53.20
2019-05-11T14:40:39.295Z,52.90
2019-05-11T14:43:09.298Z,52.80
2019-05-11T14:45:39.256Z,52.80
2019-05-11T14:48:23.100Z,52.80
2019-05-11T14:50:40.889Z,53.70
2019-05-11T14:53:11.369Z,53.50
2019-05-11T14:55:41.690Z,53.60
2019-05-11T14:58:13.038Z,54.00
2019-05-11T15:00:43.362Z,53.80
2019-05-11T15:03:14.095Z,53.70
2019-05-11T15:05:44.725Z,53.70
2019-05-11T15:08:17.853Z,54.30
2019-05-11T15:10:48.809Z,54.40
2019-05-11T15:13:22.657Z,54.70
2019-05-11T15:15:53.184Z,54.30
2019-05-11T15:18:35.194Z,54.90
2019-05-11T15:20:58.095Z,54.50
2019-05-11T15:23:28.763Z,54.30
2019-05-11T15:25:59.291Z,54.40
2019-05-11T15:28:30.947Z,54.20
2019-05-11T15:31:01.043Z,54.50
2019-05-11T15:33:31.020Z,53.60
2019-05-11T15:36:02.837Z,54.20
2019-05-11T15:38:33.365Z,54.10
2019-05-11T15:41:03.897Z,54.40
2019-05-11T15:43:34.318Z,54.30
2019-05-11T15:46:04.849Z,53.80
2019-05-11T15:48:35.069Z,53.80
2019-05-11T15:51:05.495Z,53.60
2019-05-11T15:53:35.484Z,54.60
2019-05-11T15:56:05.608Z,54.20
2019-05-11T15:58:37.671Z,54.30
2019-05-11T16:01:08.068Z,53.10
2019-05-11T16:03:39.672Z,53.30
2019-05-11T16:06:10.301Z,53.00
2019-05-11T16:08:45.268Z,52.60
2019-05-11T16:11:14.123Z,52.60
2019-05-11T16:13:48.193Z,52.60
2019-05-11T16:16:18.152Z,51.70
2019-05-11T16:18:50.622Z,52.30
2019-05-11T16:21:20.745Z,51.90
2019-05-11T16:23:51.473Z,51.30
2019-05-11T16:26:22.206Z,52.00
2019-05-11T16:28:53.758Z,51.80
2019-05-11T16:31:24.387Z,52.40
2019-05-11T16:33:55.021Z,52.50
2019-05-11T16:36:27.858Z,53.00
2019-05-11T16:38:57.715Z,52.60
2019-05-11T16:41:29.137Z,52.90
2019-05-11T16:43:59.998Z,53.20
2019-05-11T16:46:33.754Z,53.00
2019-05-11T16:49:05.708Z,53.40
2019-05-11T16:51:38.686Z,54.00
2019-05-11T16:54:08.670Z,53.50
2019-05-11T16:56:39.225Z,53.40
2019-05-11T16:59:10.231Z,53.60
2019-05-11T17:01:40.760Z,53.20
2019-05-11T17:04:11.391Z,53.60
2019-05-11T17:06:42.023Z,53.90
2019-05-11T17:09:12.756Z,54.00
2019-05-11T17:11:43.281Z,53.80
2019-05-11T17:14:13.911Z,53.40
2019-05-11T17:16:44.543Z,54.10
2019-05-11T17:19:18.242Z,54.40
2019-05-11T17:21:47.856Z,55.90
2019-05-11T17:24:18.688Z,56.60
2019-05-11T17:26:49.319Z,57.60
2019-05-11T17:29:20.871Z,58.10
2019-05-11T17:31:52.832Z,58.40
2019-05-11T17:34:23.361Z,58.70
2019-05-11T17:36:57.847Z,59.30
2019-05-11T17:39:29.126Z,59.80
2019-05-11T17:42:01.953Z,59.80
2019-05-11T17:44:32.537Z,60.30
2019-05-11T17:47:03.169Z,60.90
2019-05-11T17:49:33.731Z,61.30
2019-05-11T17:52:04.682Z,61.10
2019-05-11T17:54:35.771Z,61.20
2019-05-11T17:57:06.643Z,61.60
2019-05-11T17:59:38.643Z,61.90
2019-05-11T18:02:09.717Z,62.80
2019-05-11T18:04:40.383Z,62.20
2019-05-11T18:07:24.413Z,62.20
2019-05-11T18:09:44.065Z,62.70
2019-05-11T18:12:14.696Z,62.60
2019-05-11T18:14:48.062Z,63.40
2019-05-11T18:17:18.076Z,62.90
2019-05-11T18:19:48.736Z,63.60
2019-05-11T18:22:19.367Z,63.40
2019-05-11T18:24:50.169Z,63.70
2019-05-11T18:27:20.937Z,63.80
2019-05-11T18:29:51.771Z,64.00
2019-05-11T18:32:22.502Z,64.00
2019-05-11T18:34:53.133Z,64.50
2019-05-11T18:37:25.174Z,64.10
2019-05-11T18:39:58.379Z,64.00
2019-05-11T18:42:28.200Z,64.30
2019-05-11T18:45:00.250Z,64.30
2019-05-11T18:47:30.896Z,64.40
2019-05-11T18:50:01.633Z,64.20
2019-05-11T18:52:35.023Z,64.70
2019-05-11T18:55:08.423Z,65.20
2019-05-11T18:57:39.868Z,65.40
2019-05-11T19:00:11.223Z,65.20
2019-05-11T19:02:41.987Z,65.40
2019-05-11T19:05:13.909Z,65.70
2019-05-11T19:07:47.928Z,65.50
2019-05-11T19:10:18.038Z,66.10
2019-05-11T19:12:52.079Z,65.10
2019-05-11T19:15:22.985Z,64.30
2019-05-11T19:17:53.761Z,64.10
2019-05-11T19:20:28.137Z,64.20
2019-05-11T19:22:59.082Z,63.90
2019-05-11T19:25:29.812Z,63.70
2019-05-11T19:28:00.542Z,63.00
2019-05-11T19:30:31.376Z,62.20
2019-05-11T19:33:03.481Z,62.20
2019-05-11T19:35:34.275Z,62.30
2019-05-11T19:38:08.502Z,62.50
2019-05-11T19:40:41.210Z,62.50
2019-05-11T19:43:13.233Z,62.20
2019-05-11T19:45:44.068Z,61.20
2019-05-11T19:48:16.642Z,61.50
2019-05-11T19:51:03.684Z,61.60
2019-05-11T19:53:22.307Z,61.30
2019-05-11T19:55:53.039Z,61.50
2019-05-11T19:58:23.570Z,61.30
2019-05-11T20:00:54.302Z,61.30
2019-05-11T20:03:25.874Z,61.40
2019-05-11T20:05:58.049Z,62.70
2019-05-11T20:08:29.183Z,61.50
2019-05-11T20:11:01.432Z,61.30
2019-05-11T20:13:32.060Z,61.60
2019-05-11T20:16:02.691Z,61.20
2019-05-11T20:18:33.149Z,61.20
2019-05-11T20:21:15.541Z,61.60
2019-05-11T20:23:37.566Z,61.60
2019-05-11T20:26:08.857Z,61.90
2019-05-11T20:28:41.271Z,61.40
2019-05-11T20:31:12.006Z,61.90
2019-05-11T20:33:43.147Z,62.40
2019-05-11T20:36:17.719Z,62.40
2019-05-11T20:38:47.997Z,63.60
2019-05-11T20:41:18.520Z,62.60
2019-05-11T20:43:48.946Z,62.70
2019-05-11T20:46:19.882Z,63.70
2019-05-11T20:48:50.319Z,63.20
2019-05-11T20:51:33.222Z,63.10
2019-05-11T20:53:52.904Z,63.50
2019-05-11T20:56:28.330Z,64.00
2019-05-11T20:58:59.724Z,64.00
2019-05-11T21:01:30.533Z,63.50
2019-05-11T21:04:01.259Z,64.10
2019-05-11T21:06:33.017Z,64.50
2019-05-11T21:09:05.493Z,64.70
2019-05-11T21:11:36.019Z,64.20
2019-05-11T21:14:08.000Z,63.70
2019-05-11T21:16:40.667Z,64.00
2019-05-11T21:19:11.289Z,63.50
2019-05-11T21:21:50.124Z,64.20
2019-05-11T21:24:14.190Z,64.20
2019-05-11T21:26:44.819Z,64.00
2019-05-11T21:29:18.577Z,64.60
